Time;durP1;ratioP1;P1;durP2;ratioP2;P2;SDS_P1;SDS_P2;PMS_P1;PMS_P2;Temp;Humidity;BMP_temperature;BMP_pressure;BME280_temperature;BME280_humidity;BME280_pressure;Samples;Min_cycle;Max_cycle;Signal;HPM_P1;HPM_P2
2021/06/12 00:00:19;;;;;;;8.43;6.97;;;22.10;71.10;;;;;;5031091;28;20459;-45
2021/06/12 00:02:48;;;;;;;6.90;6.30;;;22.10;71.00;;;;;;5031383;28;20459;-45
2021/06/12 00:05:17;;;;;;;6.33;5.73;;;22.00;71.00;;;;;;5031362;28;20533;-45
2021/06/12 00:07:45;;;;;;;8.00;7.20;;;22.00;71.00;;;;;;5030464;28;20467;-45
2021/06/12 00:10:17;;;;;;;7.40;6.70;;;21.90;70.90;;;;;;5027290;28;20847;-45
2021/06/12 00:12:47;;;;;;;7.00;6.40;;;21.90;70.70;;;;;;5024743;28;20461;-45
2021/06/12 00:15:18;;;;;;;7.17;6.40;;;21.90;70.80;;;;;;5024547;28;20827;-45
2021/06/12 00:17:46;;;;;;;7.47;6.77;;;21.80;70.90;;;;;;5031163;28;20450;-45
2021/06/12 00:20:19;;;;;;;8.80;7.67;;;21.80;70.90;;;;;;5026216;28;20467;-45
2021/06/12 00:22:48;;;;;;;7.90;7.17;;;21.80;71.00;;;;;;5026916;28;20451;-45
2021/06/12 00:25:19;;;;;;;9.10;6.90;;;21.80;71.10;;;;;;5030767;28;20456;-45
2021/06/12 00:27:48;;;;;;;7.80;7.10;;;21.80;71.00;;;;;;5026411;28;20528;-45
2021/06/12 00:30:17;;;;;;;8.93;8.00;;;21.70;71.00;;;;;;5027438;28;20881;-45
2021/06/12 00:32:45;;;;;;;7.83;7.20;;;21.70;71.30;;;;;;5028930;28;20452;-45
2021/06/12 00:35:13;;;;;;;7.43;6.70;;;21.70;71.50;;;;;;5027131;28;20467;-45
2021/06/12 00:37:41;;;;;;;7.80;7.20;;;21.70;71.70;;;;;;5029463;28;20467;-45
2021/06/12 00:40:13;;;;;;;7.83;7.00;;;21.70;71.80;;;;;;5027630;28;20785;-45
2021/06/12 00:42:42;;;;;;;8.00;7.03;;;21.60;71.90;;;;;;5029306;28;20498;-45
2021/06/12 00:45:18;;;;;;;7.30;6.60;;;21.60;71.90;;;;;;5023974;28;20452;-45
2021/06/12 00:47:49;;;;;;;6.80;6.20;;;21.60;71.70;;;;;;5024822;28;20459;-45
2021/06/12 00:50:18;;;;;;;8.30;7.63;;;21.60;71.70;;;;;;5025684;28;20861;-45
2021/06/12 00:52:47;;;;;;;7.90;7.20;;;21.50;71.70;;;;;;5028056;28;20462;-45
2021/06/12 00:55:15;;;;;;;9.00;7.27;;;21.50;71.80;;;;;;5026199;28;20460;-45
2021/06/12 00:57:44;;;;;;;9.83;6.87;;;21.50;71.90;;;;;;5029400;28;20803;-46
2021/06/12 01:00:15;;;;;;;9.00;6.67;;;21.50;72.10;;;;;;5028524;28;20452;-45
2021/06/12 01:02:43;;;;;;;7.50;6.70;;;21.40;72.20;;;;;;5023796;28;20918;-45
2021/06/12 01:05:13;;;;;;;7.20;6.50;;;21.40;72.10;;;;;;5030554;28;20454;-45
2021/06/12 01:07:42;;;;;;;7.07;6.47;;;21.40;72.00;;;;;;5025112;28;20717;-45
2021/06/12 01:10:12;;;;;;;6.80;6.20;;;21.40;71.80;;;;;;5029998;28;20975;-45
2021/06/12 01:12:59;;;;;;;6.90;6.30;;;21.40;71.70;;;;;;5027020;28;20458;-45
2021/06/12 01:15:34;;;;;;;7.90;6.63;;;21.40;71.60;;;;;;5025741;28;20460;-45
2021/06/12 01:18:14;;;;;;;7.63;6.70;;;21.30;71.70;;;;;;5027540;28;20462;-45
2021/06/12 01:20:52;;;;;;;7.57;6.73;;;21.30;72.00;;;;;;5024836;28;20467;-45
2021/06/12 01:23:43;;;;;;;6.27;5.80;;;21.30;72.10;;;;;;5025955;28;20464;-45
2021/06/12 01:26:28;;;;;;;6.93;6.00;;;21.30;72.20;;;;;;5022826;28;20455;-45
2021/06/12 01:29:14;;;;;;;6.93;6.40;;;21.30;72.30;;;;;;5027363;28;20532;-45
2021/06/12 01:31:44;;;;;;;7.27;6.57;;;21.30;72.40;;;;;;5025977;28;20831;-45
2021/06/12 01:34:13;;;;;;;5.93;5.37;;;21.20;72.60;;;;;;5024641;28;20478;-45
2021/06/12 01:36:43;;;;;;;6.03;5.53;;;21.20;72.60;;;;;;5027025;28;20479;-46
2021/06/12 01:39:11;;;;;;;6.43;5.87;;;21.20;72.60;;;;;;5026202;28;20460;-45
2021/06/12 01:41:42;;;;;;;7.67;6.77;;;21.20;72.60;;;;;;5027780;28;21219;-45
2021/06/12 01:44:11;;;;;;;6.57;5.30;;;21.20;72.80;;;;;;5026040;28;20466;-45
2021/06/12 01:46:39;;;;;;;6.37;5.77;;;21.20;73.00;;;;;;5028845;28;20452;-46
2021/06/12 01:49:08;;;;;;;8.20;6.53;;;21.20;73.00;;;;;;5027147;28;20463;-45
2021/06/12 01:51:36;;;;;;;5.97;5.37;;;21.20;73.00;;;;;;5024639;28;20455;-45
2021/06/12 01:54:05;;;;;;;7.17;5.90;;;21.20;72.90;;;;;;5027858;28;20464;-45
2021/06/12 01:56:34;;;;;;;7.43;5.43;;;21.20;72.70;;;;;;5026600;28;20487;-45
2021/06/12 01:59:03;;;;;;;8.20;5.20;;;21.30;72.70;;;;;;5029007;28;20940;-45
2021/06/12 02:01:33;;;;;;;7.07;5.50;;;21.20;72.60;;;;;;5022495;28;20460;-45
2021/06/12 02:04:03;;;;;;;5.43;4.70;;;21.20;72.70;;;;;;5023675;28;20464;-45
2021/06/12 02:06:31;;;;;;;4.90;4.50;;;21.10;72.70;;;;;;5022390;28;20456;-46
2021/06/12 02:09:00;;;;;;;5.93;5.43;;;21.10;72.60;;;;;;5027297;28;20490;-45
2021/06/12 02:11:28;;;;;;;6.20;5.60;;;21.10;72.50;;;;;;5025176;28;20486;-45
2021/06/12 02:13:57;;;;;;;7.07;6.47;;;21.10;72.30;;;;;;5025637;28;20455;-45
2021/06/12 02:16:26;;;;;;;10.70;4.97;;;21.10;72.20;;;;;;5024358;28;20494;-45
2021/06/12 02:18:55;;;;;;;7.13;6.07;;;21.10;72.60;;;;;;5027609;28;20462;-45
2021/06/12 02:21:23;;;;;;;5.93;4.60;;;21.10;72.60;;;;;;5009914;28;21497;-45
2021/06/12 02:23:52;;;;;;;5.70;5.00;;;21.10;72.60;;;;;;5023648;28;20482;-45
2021/06/12 02:26:24;;;;;;;5.90;5.30;;;21.00;72.80;;;;;;5024654;28;20972;-45
2021/06/12 02:28:55;;;;;;;5.50;5.00;;;21.00;73.00;;;;;;5023908;28;20488;-45
2021/06/12 02:31:30;;;;;;;5.30;4.80;;;21.00;73.20;;;;;;5009035;28;20448;-45
2021/06/12 02:33:58;;;;;;;6.23;5.40;;;20.90;73.30;;;;;;5025415;28;20473;-45
2021/06/12 02:36:26;;;;;;;5.60;5.00;;;20.90;73.40;;;;;;5024955;28;20483;-45
2021/06/12 02:38:54;;;;;;;5.80;5.20;;;20.90;73.50;;;;;;5023638;28;20454;-45
2021/06/12 02:41:22;;;;;;;7.00;5.80;;;20.90;73.70;;;;;;5027528;28;21017;-45
2021/06/12 02:43:50;;;;;;;5.70;5.00;;;20.90;73.50;;;;;;5027783;28;20949;-45
2021/06/12 02:46:26;;;;;;;5.23;4.83;;;20.90;73.60;;;;;;5021301;28;20464;-45
2021/06/12 02:48:59;;;;;;;7.70;4.87;;;20.80;73.60;;;;;;5026188;28;20467;-46
2021/06/12 02:51:32;;;;;;;6.17;5.53;;;20.80;73.50;;;;;;5028463;28;20490;-45
2021/06/12 02:54:00;;;;;;;5.67;4.33;;;20.80;73.60;;;;;;5023383;28;20459;-47
2021/06/12 02:56:30;;;;;;;5.60;4.70;;;20.70;73.60;;;;;;5025776;28;20846;-47
2021/06/12 02:59:05;;;;;;;5.30;4.80;;;20.80;73.80;;;;;;5024742;28;20947;-47
2021/06/12 03:01:34;;;;;;;6.67;6.07;;;20.70;73.90;;;;;;5024029;28;20462;-47
2021/06/12 03:04:04;;;;;;;7.43;6.40;;;20.70;74.20;;;;;;5024694;28;20437;-46
2021/06/12 03:06:32;;;;;;;7.23;6.53;;;20.70;74.30;;;;;;5008834;28;20855;-46
2021/06/12 03:09:01;;;;;;;7.80;7.20;;;20.60;74.40;;;;;;5021075;28;20466;-47
2021/06/12 03:11:31;;;;;;;7.00;6.30;;;20.60;74.50;;;;;;5021438;28;20943;-46
2021/06/12 03:14:00;;;;;;;7.70;6.27;;;20.60;74.50;;;;;;5024549;28;20460;-47
2021/06/12 03:16:28;;;;;;;7.40;6.63;;;20.60;74.60;;;;;;5025473;28;20545;-47
2021/06/12 03:18:59;;;;;;;7.17;6.47;;;20.60;74.80;;;;;;5024534;28;20481;-47
2021/06/12 03:21:28;;;;;;;6.60;5.10;;;20.60;74.90;;;;;;5023350;28;20456;-47
2021/06/12 03:23:58;;;;;;;5.83;5.07;;;20.60;74.90;;;;;;5021756;28;20485;-47
2021/06/12 03:26:26;;;;;;;5.50;5.00;;;20.50;74.90;;;;;;5024671;28;20470;-47
2021/06/12 03:28:54;;;;;;;4.07;3.77;;;20.50;75.00;;;;;;5025954;28;20478;-47
2021/06/12 03:31:23;;;;;;;6.90;6.20;;;20.50;75.00;;;;;;5023672;28;20472;-46
2021/06/12 03:33:52;;;;;;;5.00;4.50;;;20.50;75.00;;;;;;5024576;28;21027;-47
2021/06/12 03:36:23;;;;;;;4.90;4.50;;;20.50;75.10;;;;;;5022885;28;20503;-47
2021/06/12 03:38:52;;;;;;;5.30;4.80;;;20.50;75.20;;;;;;5020712;28;20459;-46
2021/06/12 03:41:21;;;;;;;5.13;4.63;;;20.40;75.10;;;;;;5025470;28;20862;-47
2021/06/12 03:43:50;;;;;;;5.17;4.60;;;20.40;75.10;;;;;;5006657;28;20865;-47
2021/06/12 03:46:20;;;;;;;4.47;3.57;;;20.40;75.10;;;;;;5020958;28;20456;-47
2021/06/12 03:48:49;;;;;;;5.30;4.80;;;20.40;75.00;;;;;;5023596;28;20816;-47
2021/06/12 03:51:19;;;;;;;5.73;3.60;;;20.40;75.00;;;;;;5026209;28;20468;-47
2021/06/12 03:53:48;;;;;;;4.20;3.80;;;20.40;75.10;;;;;;5029937;28;20510;-47
2021/06/12 03:56:21;;;;;;;6.07;4.80;;;20.40;75.10;;;;;;5027298;28;20950;-47
2021/06/12 03:58:51;;;;;;;3.83;3.53;;;20.40;75.20;;;;;;5029121;28;20819;-47
2021/06/12 04:01:19;;;;;;;4.83;4.33;;;20.40;75.10;;;;;;5025725;28;20787;-46
2021/06/12 04:03:47;;;;;;;4.27;3.93;;;20.40;75.20;;;;;;5029969;28;20513;-47
2021/06/12 04:06:15;;;;;;;4.10;3.80;;;20.30;75.30;;;;;;5029615;28;20456;-47
2021/06/12 04:08:43;;;;;;;4.30;3.90;;;20.30;75.50;;;;;;5027332;28;20468;-46
2021/06/12 04:11:11;;;;;;;5.40;4.33;;;20.40;75.60;;;;;;5025432;28;20459;-47
2021/06/12 04:13:39;;;;;;;3.77;3.47;;;20.40;75.50;;;;;;5027003;28;20854;-47
2021/06/12 04:16:08;;;;;;;5.70;3.97;;;20.40;75.40;;;;;;5023265;28;20458;-47
2021/06/12 04:18:40;;;;;;;4.73;4.17;;;20.40;75.40;;;;;;5028093;28;20467;-47
2021/06/12 04:21:08;;;;;;;4.80;4.00;;;20.40;75.50;;;;;;5027712;28;20838;-47
2021/06/12 04:23:36;;;;;;;4.47;3.50;;;20.40;75.50;;;;;;5028298;28;20456;-47
2021/06/12 04:26:04;;;;;;;4.70;4.20;;;20.40;75.50;;;;;;5025262;28;20464;-47
2021/06/12 04:28:32;;;;;;;4.60;3.90;;;20.40;75.50;;;;;;5025567;28;20481;-47
2021/06/12 04:31:00;;;;;;;5.50;5.00;;;20.40;75.60;;;;;;5029574;28;21025;-47
2021/06/12 04:33:28;;;;;;;4.53;3.80;;;20.40;75.80;;;;;;5027713;28;20455;-47
2021/06/12 04:35:56;;;;;;;4.07;3.77;;;20.50;75.90;;;;;;5027006;28;20462;-47
2021/06/12 04:38:24;;;;;;;5.77;4.30;;;20.50;75.70;;;;;;5026894;28;20491;-47
2021/06/12 04:40:53;;;;;;;6.57;3.77;;;20.50;75.40;;;;;;5032051;28;20473;-47
2021/06/12 04:43:21;;;;;;;6.37;3.67;;;20.60;75.10;;;;;;5028444;28;20992;-47
2021/06/12 04:45:49;;;;;;;5.27;4.00;;;20.60;74.80;;;;;;5026778;28;20989;-46
2021/06/12 04:48:17;;;;;;;4.00;2.93;;;20.60;74.90;;;;;;5024056;28;20476;-47
2021/06/12 04:50:45;;;;;;;3.63;3.33;;;20.70;74.70;;;;;;5026420;28;20456;-47
2021/06/12 04:53:13;;;;;;;5.30;4.43;;;20.70;74.60;;;;;;5026947;28;20455;-47
2021/06/12 04:55:41;;;;;;;4.47;4.07;;;20.70;74.70;;;;;;5028686;28;20459;-47
2021/06/12 04:58:10;;;;;;;4.30;3.90;;;20.80;74.70;;;;;;5025410;28;20492;-47
2021/06/12 05:00:42;;;;;;;4.70;4.10;;;20.80;74.50;;;;;;5022502;28;20810;-47
2021/06/12 05:03:12;;;;;;;11.50;3.73;;;20.90;74.60;;;;;;5028585;28;20451;-47
2021/06/12 05:05:40;;;;;;;5.30;4.50;;;20.90;74.50;;;;;;5031113;28;20475;-46
2021/06/12 05:08:08;;;;;;;4.77;4.27;;;20.90;74.70;;;;;;5027271;28;20452;-46
2021/06/12 05:10:36;;;;;;;6.10;3.50;;;20.90;75.00;;;;;;5027495;28;20457;-46
2021/06/12 05:13:04;;;;;;;5.47;4.30;;;21.00;74.90;;;;;;5026586;28;20476;-47
2021/06/12 05:15:33;;;;;;;9.80;4.63;;;21.00;75.00;;;;;;5025778;28;20467;-47
2021/06/12 05:18:05;;;;;;;6.47;4.97;;;21.00;74.80;;;;;;5020904;28;21000;-47
2021/06/12 05:20:35;;;;;;;4.73;4.30;;;21.10;75.00;;;;;;5014147;28;20454;-46
2021/06/12 05:23:05;;;;;;;6.80;4.43;;;21.20;74.90;;;;;;5025574;28;20460;-46
2021/06/12 05:25:34;;;;;;;4.80;4.20;;;21.20;74.70;;;;;;5025289;28;20471;-47
2021/06/12 05:28:03;;;;;;;7.17;5.47;;;21.20;74.80;;;;;;5020959;28;20486;-47
2021/06/12 05:30:31;;;;;;;8.97;5.20;;;21.20;75.10;;;;;;5027299;28;20448;-46
2021/06/12 05:32:59;;;;;;;8.67;5.37;;;21.30;75.00;;;;;;5026320;28;20467;-47
2021/06/12 05:35:27;;;;;;;7.93;5.40;;;21.30;74.90;;;;;;5024961;28;20455;-47
2021/06/12 05:37:55;;;;;;;6.10;5.50;;;21.40;75.00;;;;;;5030187;28;20487;-46
2021/06/12 05:40:23;;;;;;;6.93;4.80;;;21.40;74.70;;;;;;5008385;28;20467;-47
2021/06/12 05:42:51;;;;;;;6.33;5.30;;;21.50;74.50;;;;;;5029322;28;20459;-46
2021/06/12 05:45:20;;;;;;;6.00;4.30;;;21.50;74.70;;;;;;5027192;28;21007;-47
2021/06/12 05:47:48;;;;;;;6.73;5.53;;;21.50;74.90;;;;;;5024679;28;20463;-47
2021/06/12 05:50:16;;;;;;;7.00;5.70;;;21.50;75.00;;;;;;5025243;28;20977;-47
2021/06/12 05:52:44;;;;;;;7.50;6.50;;;21.60;74.40;;;;;;5025975;28;20924;-47
2021/06/12 05:55:17;;;;;;;6.80;5.43;;;21.70;74.10;;;;;;5026103;28;20463;-47
2021/06/12 05:57:45;;;;;;;8.43;6.20;;;21.70;74.00;;;;;;5023576;28;21521;-47
2021/06/12 06:00:15;;;;;;;6.37;5.43;;;21.70;74.30;;;;;;5023299;28;20455;-47
2021/06/12 06:02:43;;;;;;;8.83;5.07;;;21.80;74.40;;;;;;5030038;28;20458;-47
2021/06/12 06:05:12;;;;;;;7.60;6.80;;;21.80;74.50;;;;;;5025931;28;20943;-47
2021/06/12 06:07:40;;;;;;;8.80;6.60;;;22.00;73.20;;;;;;5023702;28;20459;-47
2021/06/12 06:10:08;;;;;;;9.53;6.40;;;22.00;72.80;;;;;;5022281;28;20471;-46
2021/06/12 06:12:36;;;;;;;8.83;6.80;;;22.10;72.60;;;;;;5025089;28;20821;-46
2021/06/12 06:15:05;;;;;;;9.33;6.67;;;22.20;71.70;;;;;;5026388;28;20467;-47
2021/06/12 06:17:33;;;;;;;8.87;6.53;;;22.30;71.30;;;;;;5022911;28;20491;-47
2021/06/12 06:20:02;;;;;;;8.63;6.60;;;22.30;71.50;;;;;;5012548;28;20486;-47
2021/06/12 06:22:30;;;;;;;6.87;6.13;;;22.30;71.00;;;;;;5023199;28;20963;-47
2021/06/12 06:24:58;;;;;;;9.53;6.47;;;22.40;71.20;;;;;;5022992;28;20886;-47
2021/06/12 06:27:29;;;;;;;9.67;6.67;;;22.40;70.20;;;;;;5025429;28;20471;-47
2021/06/12 06:29:57;;;;;;;9.40;7.03;;;22.50;70.60;;;;;;5023595;28;20932;-47
2021/06/12 06:32:25;;;;;;;7.33;5.83;;;22.40;70.70;;;;;;5024387;28;20477;-47
2021/06/12 06:34:55;;;;;;;8.90;6.20;;;22.40;71.10;;;;;;5027672;28;20963;-47
2021/06/12 06:37:23;;;;;;;9.23;6.17;;;22.50;71.50;;;;;;5024549;28;20491;-47
2021/06/12 06:39:51;;;;;;;10.70;7.33;;;22.50;71.40;;;;;;5022707;28;20499;-47
2021/06/12 06:42:19;;;;;;;8.17;6.60;;;22.50;71.50;;;;;;5022748;28;20476;-47
2021/06/12 06:44:47;;;;;;;9.50;6.23;;;22.60;70.70;;;;;;5025540;28;20467;-47
2021/06/12 06:47:16;;;;;;;7.83;6.23;;;22.60;70.40;;;;;;5020490;28;20550;-47
2021/06/12 06:49:44;;;;;;;9.70;7.70;;;22.70;70.70;;;;;;5021532;28;20546;-47
2021/06/12 06:52:11;;;;;;;10.60;7.83;;;22.70;71.00;;;;;;5023602;28;20800;-47
2021/06/12 06:54:42;;;;;;;14.43;7.87;;;22.80;69.70;;;;;;5026675;28;20464;-47
2021/06/12 06:57:09;;;;;;;11.23;6.77;;;22.90;69.40;;;;;;5022862;28;20487;-47
2021/06/12 06:59:37;;;;;;;8.63;6.40;;;23.00;69.50;;;;;;5027834;28;20451;-47
2021/06/12 07:02:05;;;;;;;11.00;7.67;;;23.00;69.70;;;;;;5026457;28;20467;-47
2021/06/12 07:04:36;;;;;;;8.90;6.83;;;23.10;70.00;;;;;;5022509;28;20451;-47
2021/06/12 07:07:07;;;;;;;9.90;7.43;;;23.20;69.50;;;;;;5024622;28;20974;-47
2021/06/12 07:09:35;;;;;;;12.83;8.47;;;23.20;69.60;;;;;;5024822;28;21167;-47
2021/06/12 07:12:04;;;;;;;10.23;7.83;;;23.40;68.80;;;;;;5020391;28;20471;-47
2021/06/12 07:14:32;;;;;;;11.23;7.47;;;23.50;68.60;;;;;;5023804;28;20933;-47
2021/06/12 07:17:00;;;;;;;12.03;7.90;;;23.50;68.30;;;;;;5021194;28;20955;-47
2021/06/12 07:19:28;;;;;;;10.50;8.63;;;23.50;68.30;;;;;;5023983;28;20455;-47
2021/06/12 07:21:56;;;;;;;11.50;7.10;;;23.60;68.30;;;;;;5025074;28;20455;-48
2021/06/12 07:24:25;;;;;;;10.63;7.97;;;23.70;68.30;;;;;;5026720;28;20463;-47
2021/06/12 07:26:56;;;;;;;14.33;10.30;;;23.80;68.00;;;;;;5006835;28;20460;-47
2021/06/12 07:29:24;;;;;;;16.20;10.10;;;23.90;66.90;;;;;;5026966;28;20982;-47
2021/06/12 07:31:53;;;;;;;11.57;7.93;;;24.00;66.70;;;;;;5028040;28;20458;-47
2021/06/12 07:34:22;;;;;;;14.80;8.20;;;24.00;66.40;;;;;;5026809;28;20959;-47
2021/06/12 07:36:49;;;;;;;12.23;8.50;;;24.10;66.50;;;;;;5026001;28;20493;-47
2021/06/12 07:39:17;;;;;;;9.57;7.37;;;24.20;66.70;;;;;;5029676;28;20496;-47
2021/06/12 07:41:45;;;;;;;13.20;9.00;;;24.40;66.60;;;;;;5024535;28;20473;-47
2021/06/12 07:44:13;;;;;;;19.73;12.77;;;24.60;65.60;;;;;;5030951;28;20486;-47
2021/06/12 07:46:41;;;;;;;19.93;11.30;;;24.70;64.50;;;;;;5028077;28;20450;-47
2021/06/12 07:49:11;;;;;;;18.13;12.00;;;24.80;64.40;;;;;;5026039;28;20462;-47
2021/06/12 07:51:41;;;;;;;22.60;12.10;;;24.90;64.50;;;;;;5028101;28;20455;-47
2021/06/12 07:54:09;;;;;;;18.40;12.40;;;25.00;63.40;;;;;;5029994;28;20948;-47
2021/06/12 07:56:37;;;;;;;17.43;11.20;;;25.10;63.10;;;;;;5026981;28;20462;-47
2021/06/12 07:59:05;;;;;;;18.10;10.97;;;25.20;63.70;;;;;;5028234;28;20491;-47
2021/06/12 08:01:35;;;;;;;17.53;11.57;;;25.20;63.70;;;;;;5028797;28;20435;-47
2021/06/12 08:04:03;;;;;;;15.77;11.03;;;25.20;63.90;;;;;;5028473;28;20524;-48
2021/06/12 08:06:31;;;;;;;14.37;10.33;;;25.10;63.90;;;;;;5025934;28;20454;-46
2021/06/12 08:09:00;;;;;;;16.00;10.97;;;25.10;64.10;;;;;;5027985;28;20458;-46
2021/06/12 08:11:27;;;;;;;14.93;10.53;;;25.10;64.10;;;;;;5025805;28;20451;-46
2021/06/12 08:13:56;;;;;;;14.17;10.33;;;25.20;64.40;;;;;;5025969;28;21338;-46
2021/06/12 08:16:24;;;;;;;13.40;10.60;;;25.30;64.40;;;;;;5027843;28;20454;-46
2021/06/12 08:18:52;;;;;;;16.20;10.87;;;25.50;64.70;;;;;;5029224;28;20486;-46
2021/06/12 08:21:23;;;;;;;12.80;10.10;;;25.60;63.30;;;;;;5024141;28;20458;-46
2021/06/12 08:23:50;;;;;;;11.97;9.50;;;25.60;64.00;;;;;;5025471;28;20940;-46
2021/06/12 08:26:18;;;;;;;10.70;8.10;;;25.60;63.50;;;;;;5027063;28;20448;-46
2021/06/12 08:28:46;;;;;;;11.43;9.37;;;25.70;63.50;;;;;;5022962;28;20467;-46
2021/06/12 08:31:14;;;;;;;14.17;8.83;;;25.80;63.10;;;;;;5025576;28;20835;-46
2021/06/12 08:33:42;;;;;;;10.50;7.70;;;25.90;62.30;;;;;;5025472;28;20448;-47
2021/06/12 08:36:10;;;;;;;9.30;7.97;;;25.90;62.00;;;;;;5027267;28;20459;-46
2021/06/12 08:38:38;;;;;;;9.30;7.00;;;25.90;61.50;;;;;;5027128;28;21066;-47
2021/06/12 08:41:09;;;;;;;9.10;7.70;;;25.80;62.30;;;;;;5026843;28;20444;-47
2021/06/12 08:43:37;;;;;;;13.33;7.47;;;25.80;62.50;;;;;;5027609;28;20456;-46
2021/06/12 08:46:25;;;;;;;9.10;7.40;;;25.90;63.20;;;;;;5025195;28;20456;-47
2021/06/12 08:48:54;;;;;;;8.30;6.90;;;26.10;63.10;;;;;;5025573;28;20456;-47
2021/06/12 08:51:22;;;;;;;7.03;6.20;;;26.20;61.30;;;;;;5027282;28;20454;-47
2021/06/12 08:53:51;;;;;;;6.60;6.00;;;26.30;60.90;;;;;;5028170;28;20439;-46
2021/06/12 08:56:19;;;;;;;7.20;6.20;;;26.30;60.50;;;;;;5026629;28;20467;-47
2021/06/12 08:58:48;;;;;;;8.07;6.10;;;26.40;60.00;;;;;;5029090;28;20485;-46
2021/06/12 09:01:20;;;;;;;8.23;5.90;;;26.50;60.40;;;;;;5025746;28;20458;-46
2021/06/12 09:03:49;;;;;;;6.90;5.13;;;26.50;60.30;;;;;;5024369;28;20447;-47
2021/06/12 09:06:21;;;;;;;6.97;5.40;;;26.50;60.10;;;;;;5025124;28;20475;-46
2021/06/12 09:09:00;;;;;;;5.67;4.17;;;26.60;60.70;;;;;;5027065;28;20903;-47
2021/06/12 09:11:33;;;;;;;4.23;3.93;;;26.70;60.40;;;;;;5027111;28;20600;-47
2021/06/12 09:14:02;;;;;;;4.87;4.20;;;26.80;59.40;;;;;;5024651;28;20495;-47
2021/06/12 09:16:32;;;;;;;4.10;3.60;;;26.90;58.50;;;;;;5026945;28;20439;-47
2021/06/12 09:19:18;;;;;;;4.77;4.37;;;27.00;58.00;;;;;;5026114;28;20494;-46
2021/06/12 09:21:48;;;;;;;5.30;4.00;;;27.00;57.60;;;;;;5026904;28;20455;-47
2021/06/12 09:24:32;;;;;;;4.23;3.93;;;27.00;57.60;;;;;;5026840;28;20493;-46
2021/06/12 09:27:03;;;;;;;3.43;3.13;;;27.20;58.20;;;;;;5029882;28;20461;-46
2021/06/12 09:29:51;;;;;;;3.90;3.30;;;27.30;56.70;;;;;;5022897;28;20521;-47
2021/06/12 09:32:19;;;;;;;3.53;2.80;;;27.60;56.10;;;;;;5025662;28;20493;-47
2021/06/12 09:34:51;;;;;;;4.50;2.70;;;27.90;53.90;;;;;;5025782;28;20534;-47
2021/06/12 09:37:27;;;;;;;6.27;2.90;;;28.20;53.60;;;;;;5027976;28;20207;-47
2021/06/12 09:40:14;;;;;;;11.03;4.50;;;28.50;52.80;;;;;;5027595;28;20454;-47
2021/06/12 09:42:43;;;;;;;3.87;3.57;;;28.90;51.90;;;;;;5024368;28;20479;-47
2021/06/12 09:45:31;;;;;;;4.03;2.37;;;29.20;51.40;;;;;;5023358;28;20446;-47
2021/06/12 09:48:11;;;;;;;2.30;2.20;;;29.40;50.80;;;;;;5022124;28;20933;-47
2021/06/12 09:50:44;;;;;;;4.50;2.30;;;29.60;49.90;;;;;;5024755;28;20219;-46
2021/06/12 09:53:14;;;;;;;4.60;2.17;;;29.70;50.10;;;;;;5022033;28;20669;-46
2021/06/12 09:55:42;;;;;;;1.87;1.77;;;29.70;49.80;;;;;;5025793;28;20204;-47
2021/06/12 09:58:10;;;;;;;2.77;2.57;;;29.50;49.00;;;;;;5025749;28;20238;-47
2021/06/12 10:00:43;;;;;;;2.10;2.00;;;29.30;50.50;;;;;;5022440;28;20215;-47
2021/06/12 10:03:31;;;;;;;1.90;1.80;;;29.20;49.30;;;;;;5026109;28;20649;-47
2021/06/12 10:06:23;;;;;;;2.10;1.40;;;29.00;49.70;;;;;;5025621;28;20442;-47
2021/06/12 10:08:53;;;;;;;1.60;1.20;;;28.70;50.30;;;;;;5028084;28;20209;-47
2021/06/12 10:11:25;;;;;;;2.27;1.47;;;28.50;50.40;;;;;;5023889;28;20447;-47
2021/06/12 10:13:53;;;;;;;1.40;1.30;;;28.30;50.10;;;;;;5023791;28;20447;-47
2021/06/12 10:16:22;;;;;;;1.70;1.60;;;28.20;50.40;;;;;;5021497;28;20459;-47
2021/06/12 10:18:52;;;;;;;6.73;1.03;;;28.10;52.10;;;;;;5026128;28;20494;-47
2021/06/12 10:21:20;;;;;;;1.43;1.10;;;27.90;51.30;;;;;;5024666;28;20659;-47
2021/06/12 10:23:50;;;;;;;3.20;1.10;;;27.80;50.90;;;;;;5024974;28;20806;-47
2021/06/12 10:26:21;;;;;;;0.90;0.90;;;27.60;51.70;;;;;;5023424;28;20474;-48
2021/06/12 10:28:50;;;;;;;1.20;1.10;;;27.50;51.30;;;;;;5026655;28;20478;-47
2021/06/12 10:31:22;;;;;;;1.47;1.37;;;27.40;51.30;;;;;;5024728;28;20451;-47
2021/06/12 10:33:53;;;;;;;3.47;0.93;;;27.40;50.00;;;;;;5023162;28;20439;-47
2021/06/12 10:36:26;;;;;;;2.77;1.10;;;27.30;51.10;;;;;;5021681;28;20948;-48
2021/06/12 10:38:56;;;;;;;1.23;1.13;;;27.30;50.50;;;;;;5026156;28;20803;-47
2021/06/12 10:41:37;;;;;;;1.10;1.00;;;27.30;49.10;;;;;;5023641;28;20446;-47
2021/06/12 10:44:05;;;;;;;1.60;1.17;;;27.20;49.20;;;;;;5025353;28;20450;-47
2021/06/12 10:46:44;;;;;;;1.47;1.37;;;27.10;50.80;;;;;;5026755;28;20451;-47
2021/06/12 10:49:28;;;;;;;0.97;0.97;;;27.00;51.50;;;;;;5022775;28;20529;-47
2021/06/12 10:51:55;;;;;;;1.60;1.50;;;27.00;50.30;;;;;;5026230;28;20455;-47
2021/06/12 10:54:28;;;;;;;1.50;1.40;;;26.90;50.10;;;;;;5022641;28;21175;-47
2021/06/12 10:57:04;;;;;;;1.40;1.30;;;26.90;51.20;;;;;;5025165;28;20504;-47
2021/06/12 10:59:40;;;;;;;1.80;1.30;;;26.90;50.60;;;;;;5022560;28;20487;-47
2021/06/12 11:02:26;;;;;;;2.07;1.00;;;26.90;51.50;;;;;;5006450;28;20447;-47
2021/06/12 11:05:03;;;;;;;1.60;1.50;;;27.00;50.20;;;;;;5026969;28;20472;-47
2021/06/12 11:07:41;;;;;;;1.93;1.73;;;27.00;50.50;;;;;;5025919;28;20454;-47
2021/06/12 11:10:12;;;;;;;2.40;2.20;;;27.10;51.90;;;;;;5030093;28;20450;-47
2021/06/12 11:13:00;;;;;;;2.93;2.27;;;27.10;52.40;;;;;;5028328;28;20442;-47
2021/06/12 11:15:33;;;;;;;2.17;2.00;;;27.20;51.70;;;;;;5029102;28;20505;-47
2021/06/12 11:18:13;;;;;;;3.03;2.17;;;27.10;50.20;;;;;;5027294;28;20450;-47
2021/06/12 11:20:45;;;;;;;2.40;2.20;;;27.10;50.10;;;;;;5028532;28;20455;-47
2021/06/12 11:23:16;;;;;;;1.90;1.80;;;27.20;50.70;;;;;;5028779;28;20477;-47
2021/06/12 11:25:47;;;;;;;2.73;2.50;;;27.20;50.50;;;;;;5027130;28;20446;-47
2021/06/12 11:28:22;;;;;;;2.57;2.40;;;27.20;51.70;;;;;;5029928;28;20486;-47
2021/06/12 11:30:54;;;;;;;3.57;2.20;;;27.20;49.20;;;;;;5026216;28;21232;-47
2021/06/12 11:33:22;;;;;;;2.17;1.97;;;27.30;50.10;;;;;;5029631;28;20819;-47
2021/06/12 11:35:52;;;;;;;2.43;2.23;;;27.30;49.70;;;;;;5025887;28;20443;-47
2021/06/12 11:38:33;;;;;;;3.13;2.67;;;27.30;50.50;;;;;;5027014;28;20499;-47
2021/06/12 11:41:16;;;;;;;2.60;2.40;;;27.20;50.30;;;;;;5029273;28;20870;-48
2021/06/12 11:43:51;;;;;;;3.23;2.93;;;27.20;50.10;;;;;;5027803;28;20473;-47
2021/06/12 11:46:25;;;;;;;3.90;3.13;;;27.10;51.20;;;;;;5027303;28;20485;-47
2021/06/12 11:48:54;;;;;;;3.93;2.80;;;27.10;51.20;;;;;;5029644;28;20539;-47
2021/06/12 11:51:31;;;;;;;4.20;2.60;;;27.00;51.80;;;;;;5028220;28;20504;-47
2021/06/12 11:54:17;;;;;;;3.83;3.30;;;27.00;50.90;;;;;;5029502;28;20466;-47
2021/06/12 11:56:53;;;;;;;4.60;2.70;;;27.00;51.00;;;;;;5024360;28;20522;-47
2021/06/12 11:59:23;;;;;;;3.20;2.90;;;26.90;51.20;;;;;;5028205;28;20494;-47
2021/06/12 12:02:02;;;;;;;2.97;2.67;;;26.90;52.10;;;;;;5027114;28;20463;-47
2021/06/12 12:04:39;;;;;;;3.83;2.97;;;27.00;53.00;;;;;;5033228;28;20538;-47
2021/06/12 12:07:11;;;;;;;2.93;2.63;;;27.10;51.10;;;;;;5027155;28;20442;-47
2021/06/12 12:09:42;;;;;;;3.50;2.43;;;27.10;51.70;;;;;;5028024;28;20451;-47
2021/06/12 12:12:14;;;;;;;2.67;2.47;;;27.10;52.10;;;;;;5026860;28;20446;-48
2021/06/12 12:14:46;;;;;;;7.20;2.50;;;27.10;51.70;;;;;;5027231;28;20842;-48
2021/06/12 12:17:22;;;;;;;2.77;2.33;;;27.10;51.50;;;;;;5023949;28;20493;-47
2021/06/12 12:20:04;;;;;;;2.77;2.57;;;27.00;52.10;;;;;;5025908;28;20501;-47
2021/06/12 12:22:37;;;;;;;2.97;2.77;;;27.00;51.50;;;;;;5027557;28;20481;-48
2021/06/12 12:25:08;;;;;;;2.23;2.10;;;27.00;51.60;;;;;;5027149;28;20968;-47
2021/06/12 12:27:36;;;;;;;2.40;2.13;;;27.00;52.00;;;;;;5026812;28;20824;-47
2021/06/12 12:30:07;;;;;;;2.50;2.30;;;27.00;51.50;;;;;;5008377;28;20451;-47
2021/06/12 12:32:43;;;;;;;2.60;2.40;;;27.00;51.40;;;;;;5028117;28;20454;-47
2021/06/12 12:35:15;;;;;;;2.60;2.40;;;27.00;52.00;;;;;;5024488;28;20820;-47
2021/06/12 12:37:44;;;;;;;2.50;2.30;;;26.90;51.20;;;;;;5025571;28;20451;-47
2021/06/12 12:40:20;;;;;;;3.73;2.00;;;26.90;51.90;;;;;;5027747;28;20482;-47
2021/06/12 12:43:04;;;;;;;3.10;1.93;;;26.90;51.70;;;;;;5028322;28;20455;-47
2021/06/12 12:45:34;;;;;;;3.13;1.90;;;26.90;51.20;;;;;;5026243;28;20459;-47
2021/06/12 12:48:03;;;;;;;2.17;1.97;;;26.90;50.70;;;;;;5023838;28;20459;-47
2021/06/12 12:50:32;;;;;;;2.00;1.80;;;26.80;51.20;;;;;;5026738;28;20506;-47
2021/06/12 12:53:21;;;;;;;2.00;1.90;;;26.70;51.50;;;;;;5025805;28;20450;-47
2021/06/12 12:56:07;;;;;;;2.50;2.30;;;26.60;51.60;;;;;;5024933;28;20498;-47
2021/06/12 12:58:36;;;;;;;2.73;2.53;;;26.60;51.80;;;;;;5026279;28;20443;-47
2021/06/12 13:01:09;;;;;;;2.53;2.33;;;26.50;52.50;;;;;;5028762;28;20817;-47
2021/06/12 13:03:44;;;;;;;4.70;2.30;;;26.50;52.50;;;;;;5025644;28;20447;-47